Pioche, Nevada Weather observations

Data are for observation ending at time listed.
 Day   Time    Ave.   Ave.  Ave.  Vector   Max.   Stn.    Total    Solar   Ave.  
  of    of     Air    Rel.  Wind   Wind    Wind   Baro.  Precip.   Rad.    Soil  
Year   Day     Temp.  Hum.  Speed  Dir.    Gust   Pres.                    Temp. 
2014   (PST)    F      %     mph   deg.    mph     mb.     in.     W/m2     F   
------------------------------------------------------------------------------
 109   11:30   67.0    24    1.8    84      7.2   819.3    0.00    1064    59.1
 109   11:40   66.4    24    7.0   120     13.9   819.2    0.00    1067    59.1
 109   11:50   66.2    25    7.1   110     13.9   819.2    0.00    1095    59.2
 109   12:00   65.3    25    7.7   110     13.1   819.2    0.00     291    59.3
 109   12:10   64.8    24    5.5   129     10.6   819.1    0.00     341    59.5
 109   12:20   65.4    24    6.7   137     12.9   819.0    0.00     694    59.6
 109   12:30   66.4    23    5.0   136     14.0   819.0    0.00     692    59.7
 109   12:40   67.1    23    4.8   173     12.3   818.9    0.00     575    59.8
 109   12:50   65.4    23    5.0   145     12.6   818.9    0.00     219    60.0
 109   13:00   65.3    24    5.8   125     15.1   818.7    0.00     204    60.1
 109   13:10   65.4    24    4.1   278      7.3   818.8    0.00     211    60.3
 109   13:20   65.7    24    4.5   151      9.9   818.7    0.00     253    60.4
 109   13:30   66.1    23    1.3   247      5.8   818.6    0.00     354    60.6
 109   13:40   67.7    22    1.5   335      6.2   818.5    0.00     404    60.7
 109   13:50   67.1    22    4.4   293     14.8   818.5    0.00     364    60.8
 109   14:00   66.5    22    3.2   315      6.8   818.4    0.00     287    60.9
 109   14:10   66.8    22    4.0   289      9.7   818.4    0.00     354    61.1
 109   14:20   67.9    22    4.3   264     10.5   818.3    0.00     554    61.2
 109   14:30   68.1    22    3.2   262     11.5   818.3    0.00     473    61.3
 109   14:40   69.2    22    4.9   273     13.4   818.2    0.00     579    61.4
 109   14:50   68.6    21    5.0   274     11.4   818.3    0.00     588    61.4
 109   15:00   68.9    21    5.4   298     12.6   818.3    0.00     626    61.5
 109   15:10   69.3    21    3.9   253     10.7   818.3    0.00     557    61.6
 109   15:20   69.7    20    4.9   204     12.5   818.3    0.00     557    61.7
 109   15:30   69.7    20    5.6   239     11.8   818.3    0.00     569    61.8
 109   15:40   68.1    19    6.3   310     14.2   818.3    0.00     291    61.9
 109   15:50   69.8    19    3.1   276      8.8   818.2    0.00     600    62.0
 109   16:00   70.3    19    6.0   269     13.5   818.3    0.00     584    62.0
 109   16:10   69.8    19    5.0   227     11.9   818.3    0.00     521    62.1
 109   16:20   69.4    20    6.8   272     17.0   818.4    0.00     413    62.2
 109   16:30   68.5    22    8.4   266     16.0   818.4    0.00     220    62.3
 109   16:40   68.0    22    5.1   237     11.2   818.5    0.00     182    62.4
 109   16:50   67.6    23    7.1   204     14.8   818.4    0.00     162    62.5
 109   17:00   67.5    23    5.8   225     13.2   818.5    0.00     150    62.5
 109   17:10   67.1    23    7.5   269     17.8   818.5    0.00     210    62.6
 109   17:20   66.0    24    7.7   270     16.0   818.5    0.00      83    62.7
 109   17:30   65.4    24    7.3   270     12.7   818.6    0.00      57    62.8
 109   17:40   64.9    25    5.6   264     12.3   818.7    0.00      36    62.9
 109   17:50   64.6    25    4.1   248     10.9   818.8    0.00      27    63.0
 109   18:00   64.5    25    5.7   283      9.7   819.0    0.00      11    63.0
 109   18:10   63.1    29    9.7   306     16.4   819.4    0.00       3    63.0
 109   18:20   61.9    32    9.3   309     17.5   819.6    0.00       0    63.1
 109   18:30   60.7    35    1.9     9      6.4   819.9    0.00       0    63.1
 109   18:40   60.0    36    4.0    75      9.1   820.0    0.00       0    63.2
 109   18:50   59.4    38    6.2    76     13.2   820.1    0.00       0    63.2
 109   19:00   58.6    40    3.9    78      6.7   820.3    0.00       0    63.3
 109   19:10   58.4    41    2.1    96      5.0   820.4    0.00       0    63.3
 109   19:20   58.1    42    1.7    92      4.2   820.5    0.00       0    63.3
 109   19:30   57.9    42    2.3   105      4.1   820.6    0.00       0    63.3
 109   19:40   57.8    43    1.6   110      2.5   820.6    0.00       0    63.3
 109   19:50   57.9    43    2.4   123      4.7   820.7    0.00       0    63.3
 109   20:00   58.2    42    3.0   102      5.3   820.6    0.00       0    63.3
 109   20:10   58.3    41    4.8    94      7.6   820.6    0.00       0    63.3
 109   20:20   58.1    41    3.7    82      5.6   820.6    0.00       0    63.3
 109   20:30   57.4    42    2.0    72      3.1   820.6    0.00       0    63.2
 109   20:40   56.6    45    2.4    72      4.8   820.6    0.00       0    63.2
 109   20:50   56.2    46    3.3   106      4.9   820.6    0.00       0    63.2
 109   21:00   56.6    47    3.0    99      5.1   820.5    0.00       0    63.2
 109   21:10   55.8    48    0.9   264      2.8   820.5    0.00       0    63.2
 109   21:20   54.9    48    1.4   304      2.7   820.6    0.00       0    63.2
 109   21:30   54.0    55    0.1   261      0.7   820.7    0.00       0    63.2
 109   21:40   53.5    54    1.1   165      2.9   820.7    0.00       0    63.2
 109   21:50   53.0    53    2.4   156      3.9   820.6    0.00       0    63.1
 109   22:00   54.5    44    3.7   148      4.9   820.6    0.00       0    63.1
 109   22:10   55.4    42    4.5   136      5.5   820.6    0.00       0    63.0
 109   22:20   55.4    42    4.2   131      5.5   820.6    0.00       0    63.0
 109   22:30   54.8    47    2.8   114      4.2   820.6    0.00       0    63.0
 109   22:40   54.6    44    3.9   144      4.7   820.6    0.00       0    62.9
 109   22:50   54.9    44    2.0   134      4.1   820.7    0.00       0    62.9
 109   23:00   53.2    58    0.4    85      1.9   820.8    0.00       0    62.9
 109   23:10   52.1    55    2.1   138      5.6   820.8    0.00       0    62.8
 109   23:20   55.0    43    4.9   152      8.6   820.7    0.00       0    62.8
 109   23:30   56.7    39    6.1   149     10.5   820.7    0.00       0    62.7
 109   23:40   56.7    40    5.7   147      9.5   820.7    0.00       0    62.7
 109   23:50   55.7    42    5.0   144      6.6   820.7    0.00       0    62.6
 110    0:00   54.9    43    5.5   140      8.3   820.7    0.00       0    62.6
 110    0:10   54.3    43    5.6   140      7.6   820.7    0.00       0    62.6
 110    0:20   53.9    42    4.9   141      6.7   820.7    0.00       0    62.5
 110    0:30   53.5    43    3.0   129      4.7   820.7    0.00       0    62.4
 110    0:40   52.1    50    1.9    71      3.9   820.8    0.00       0    62.4
 110    0:50   50.5    55    1.6    89      3.7   820.8    0.00       0    62.3
 110    1:00   49.2    57    0.2    83      1.6   820.8    0.00       0    62.3
 110    1:10   48.1    58    0.5   108      2.5   820.8    0.00       0    62.3
 110    1:20   47.6    59    1.2   176      3.1   820.7    0.00       0    62.2
 110    1:30   49.1    54    2.0   118      4.1   820.7    0.00       0    62.1
 110    1:40   49.4    54    0.7   344      2.4   820.9    0.00       0    62.1
 110    1:50   48.1    58    1.4   256      3.3   821.0    0.00       0    62.0
 110    2:00   48.4    56    3.2   144      5.8   821.0    0.00       0    62.0
 110    2:10   49.5    52    4.2   132      6.3   821.0    0.00       0    61.9
 110    2:20   49.8    50    3.4   132      4.5   821.0    0.00       0    61.8
 110    2:30   50.1    50    1.8   101      4.4   821.1    0.00       0    61.8
 110    2:40   49.3    52    1.8   134      4.3   821.1    0.00       0    61.7
 110    2:50   48.2    54    1.1   168      2.7   821.1    0.00       0    61.7
 110    3:00   47.5    54    1.1   170      2.8   821.1    0.00       0    61.6
 110    3:10   48.1    52    2.5   129      3.4   821.1    0.00       0    61.6
 110    3:20   48.1    54    2.4   254      5.9   821.1    0.00       0    61.5
 110    3:30   48.7    53    1.8   127      4.7   821.1    0.00       0    61.4
 110    3:40   48.6    54    1.8    87      3.8   821.1    0.00       0    61.4
 110    3:50   47.8    57    1.5   114      3.1   821.2    0.00       0    61.3
 110    4:00   47.6    58    0.4   106      1.9   821.2    0.00       0    61.3
 110    4:10   47.7    58    4.1   134      6.1   821.2    0.00       0    61.2
 110    4:20   48.4    55    1.8    92      4.8   821.1    0.00       0    61.2
 110    4:30   48.0    55    3.8    89      5.3   821.2    0.00       0    61.1
 110    4:40   48.4    54    2.6    87      4.9   821.3    0.00       0    61.1
 110    4:50   47.3    56    1.2   187      3.4   821.4    0.00       1    61.0
 110    5:00   47.2    55    1.9   113      5.5   821.4    0.00       7    61.0
 110    5:10   47.5    55    0.2    55      1.0   821.4    0.00      17    60.9
 110    5:20   47.8    54    0.6    22      2.5   821.4    0.00      30    60.8
 110    5:30   47.4    56    0.9   331      4.6   821.6    0.00      44    60.8
 110    5:40   47.2    57    0.1   318      0.5   821.7    0.00      57    60.7
 110    5:50   47.8    57    0.2   319      2.2   821.7    0.00      89    60.7
 110    6:00   49.4    55    1.3   186      2.6   821.7    0.00     176    60.6
 110    6:10   51.3    51    2.0   311      4.0   821.9    0.00     241    60.6
 110    6:20   53.0    48    1.1   270      2.2   822.0    0.00     263    60.5
 110    6:30   55.0    44    0.9   322      3.0   822.2    0.00     292    60.5
 110    6:40   56.5    42    0.6   336      4.1   822.3    0.00     303    60.5
 110    6:50   56.5    42    0.6   342      2.9   822.3    0.00     334    60.4
 110    7:00   56.8    42    1.4   337      4.6   822.4    0.00     354    60.4
 110    7:10   57.7    40    0.5   360      2.3   822.5    0.00     360    60.4
 110    7:20   58.3    40    1.4   317      4.0   822.6    0.00     395    60.3
 110    7:30   57.8    40    1.5   307      3.1   822.7    0.00     436    60.2
 110    7:40   58.2    39    2.6   315      4.8   822.7    0.00     483    60.2
 110    7:50   59.1    38    3.6   315      5.8   822.8    0.00     549    60.2
 110    8:00   60.3    36    3.6   312      5.4   822.8    0.00     574    60.2
 110    8:10   61.9    33    1.9   317      5.0   822.8    0.00     624    60.2
 110    8:20   63.9    31    1.9   332      4.7   822.8    0.00     689    60.1
 110    8:30   64.3    31    1.9   313      5.0   822.8    0.00     717    60.1
 110    8:40   65.6    30    1.4    34      4.7   822.9    0.00     723    60.1
 110    8:50   65.0    29    2.6    12      6.9   822.9    0.00     778    60.1
 110    9:00   65.1    29    2.1   336      5.6   823.0    0.00     808    60.0
 110    9:10   66.2    28    2.6    60      6.4   823.0    0.00     794    60.0
 110    9:20   65.6    28    3.1    75      6.4   823.1    0.00     819    60.0
 110    9:30   66.8    28    1.7    65      5.6   823.1    0.00     869    60.0
 110    9:40   67.7    27    1.9   360      5.1   823.0    0.00     840    60.0
 110    9:50   68.8    26    2.4    62      6.9   823.0    0.00     877    60.0
 110   10:00   67.7    26    3.3   329      8.0   822.9    0.00     832    60.0
 110   10:10   67.8    26    3.1    45      8.4   822.9    0.00     729    60.0
 110   10:20   68.9    25    1.8    33      4.5   822.9    0.00     706    60.0
 110   10:30   68.1    25    1.7    86      3.9   822.9    0.00     744    60.0
 110   10:40   70.4    24    1.5   343      5.3   822.8    0.00    1005    60.1
 110   10:50   69.8    24    2.6    82      8.9   822.8    0.00     528    60.1
 110   11:00   67.9    24    2.6    74      6.6   822.7    0.00     190    60.2
 110   11:10   67.9    24    2.5   289      6.9   822.7    0.00     450    60.2
 110   11:20   69.0    22    3.3   301      9.1   822.5    0.00     889    60.3

Return to Pioche, Nevada graphs page.


Western Regional Climate Center,wrcc@dri.edu